sensor_id;sensor_type;location;lat;lon;timestamp;pressure;altitude;pressure_sealevel;temperature;humidity
20023;BME280;10172;42.054;24.546;2022-07-05T00:01:34;98238.44;;;20.38;85.07
20023;BME280;10172;42.054;24.546;2022-07-05T00:03:59;98238.97;;;19.32;90.55
20023;BME280;10172;42.054;24.546;2022-07-05T00:06:25;98230.78;;;19.67;88.15
20023;BME280;10172;42.054;24.546;2022-07-05T00:08:50;98241.22;;;20.20;84.69
20023;BME280;10172;42.054;24.546;2022-07-05T00:11:16;98247.06;;;20.49;83.50
20023;BME280;10172;42.054;24.546;2022-07-05T00:13:42;98245.03;;;19.51;89.32
20023;BME280;10172;42.054;24.546;2022-07-05T00:16:07;98243.03;;;19.36;90.42
20023;BME280;10172;42.054;24.546;2022-07-05T00:18:33;98221.78;;;19.92;86.47
20023;BME280;10172;42.054;24.546;2022-07-05T00:20:58;98224.97;;;19.54;89.14
20023;BME280;10172;42.054;24.546;2022-07-05T00:23:24;98224.31;;;19.60;89.88
20023;BME280;10172;42.054;24.546;2022-07-05T00:25:49;98228.44;;;19.38;90.70
20023;BME280;10172;42.054;24.546;2022-07-05T00:28:15;98216.59;;;20.15;85.54
20023;BME280;10172;42.054;24.546;2022-07-05T00:30:41;98230.66;;;20.26;84.69
20023;BME280;10172;42.054;24.546;2022-07-05T00:33:06;98222.28;;;19.54;88.80
20023;BME280;10172;42.054;24.546;2022-07-05T00:35:32;98222.09;;;19.89;87.37
20023;BME280;10172;42.054;24.546;2022-07-05T00:37:57;98217.94;;;19.09;91.50
20023;BME280;10172;42.054;24.546;2022-07-05T00:40:23;98237.41;;;19.47;90.51
20023;BME280;10172;42.054;24.546;2022-07-05T00:42:48;98221.06;;;19.90;87.01
20023;BME280;10172;42.054;24.546;2022-07-05T00:45:13;98213.41;;;19.69;87.71
20023;BME280;10172;42.054;24.546;2022-07-05T00:47:39;98211.00;;;20.08;85.56
20023;BME280;10172;42.054;24.546;2022-07-05T00:50:05;98218.69;;;19.87;86.81
20023;BME280;10172;42.054;24.546;2022-07-05T00:52:31;98199.00;;;19.53;88.86
20023;BME280;10172;42.054;24.546;2022-07-05T00:54:56;98198.88;;;18.60;95.99
20023;BME280;10172;42.054;24.546;2022-07-05T00:57:22;98193.25;;;18.96;94.53
20023;BME280;10172;42.054;24.546;2022-07-05T00:59:49;98193.19;;;18.27;100.00
20023;BME280;10172;42.054;24.546;2022-07-05T01:02:14;98197.56;;;18.46;97.98
20023;BME280;10172;42.054;24.546;2022-07-05T01:04:40;98189.75;;;18.78;96.06
20023;BME280;10172;42.054;24.546;2022-07-05T01:07:05;98192.59;;;19.54;90.69
20023;BME280;10172;42.054;24.546;2022-07-05T01:09:33;98174.84;;;19.93;87.14
20023;BME280;10172;42.054;24.546;2022-07-05T01:11:59;98187.28;;;19.78;87.37
20023;BME280;10172;42.054;24.546;2022-07-05T01:14:24;98177.75;;;18.98;91.95
20023;BME280;10172;42.054;24.546;2022-07-05T01:16:52;98189.75;;;19.30;91.03
20023;BME280;10172;42.054;24.546;2022-07-05T01:19:18;98187.34;;;19.94;86.78
20023;BME280;10172;42.054;24.546;2022-07-05T01:21:47;98179.81;;;19.64;87.48
20023;BME280;10172;42.054;24.546;2022-07-05T01:24:14;98173.72;;;19.54;87.80
20023;BME280;10172;42.054;24.546;2022-07-05T01:26:41;98177.47;;;19.69;87.01
20023;BME280;10172;42.054;24.546;2022-07-05T01:29:08;98187.75;;;20.23;84.41
20023;BME280;10172;42.054;24.546;2022-07-05T01:31:38;98184.56;;;20.60;81.35
20023;BME280;10172;42.054;24.546;2022-07-05T01:34:04;98163.22;;;20.01;83.89
20023;BME280;10172;42.054;24.546;2022-07-05T01:36:30;98161.72;;;20.14;83.41
20023;BME280;10172;42.054;24.546;2022-07-05T01:38:56;98157.63;;;19.86;85.06
20023;BME280;10172;42.054;24.546;2022-07-05T01:41:22;98174.47;;;20.70;80.73
20023;BME280;10172;42.054;24.546;2022-07-05T01:43:47;98187.41;;;21.23;78.44
20023;BME280;10172;42.054;24.546;2022-07-05T01:46:15;98179.25;;;21.39;76.72
20023;BME280;10172;42.054;24.546;2022-07-05T01:48:42;98190.44;;;21.75;73.42
20023;BME280;10172;42.054;24.546;2022-07-05T01:51:15;98181.44;;;21.91;72.55
20023;BME280;10172;42.054;24.546;2022-07-05T01:53:44;98192.69;;;20.52;79.20
20023;BME280;10172;42.054;24.546;2022-07-05T01:56:11;98198.28;;;19.43;87.39
20023;BME280;10172;42.054;24.546;2022-07-05T01:58:37;98199.59;;;19.39;87.24
20023;BME280;10172;42.054;24.546;2022-07-05T02:01:03;98188.13;;;18.85;92.45
20023;BME280;10172;42.054;24.546;2022-07-05T02:03:29;98194.34;;;19.11;90.99
20023;BME280;10172;42.054;24.546;2022-07-05T02:05:55;98184.50;;;18.94;91.14
20023;BME280;10172;42.054;24.546;2022-07-05T02:08:21;98201.22;;;19.06;91.19
20023;BME280;10172;42.054;24.546;2022-07-05T02:10:46;98196.56;;;19.76;87.35
20023;BME280;10172;42.054;24.546;2022-07-05T02:13:12;98200.63;;;20.54;83.27
20023;BME280;10172;42.054;24.546;2022-07-05T02:15:40;98212.03;;;20.15;84.11
20023;BME280;10172;42.054;24.546;2022-07-05T02:18:07;98220.53;;;19.45;89.28
20023;BME280;10172;42.054;24.546;2022-07-05T02:20:33;98211.34;;;20.05;84.34
20023;BME280;10172;42.054;24.546;2022-07-05T02:22:59;98218.88;;;19.52;86.35
20023;BME280;10172;42.054;24.546;2022-07-05T02:25:25;98225.50;;;20.07;84.00
20023;BME280;10172;42.054;24.546;2022-07-05T02:27:51;98228.84;;;19.51;87.58
20023;BME280;10172;42.054;24.546;2022-07-05T02:30:17;98227.03;;;18.47;93.70
20023;BME280;10172;42.054;24.546;2022-07-05T02:32:43;98231.03;;;19.04;91.08
20023;BME280;10172;42.054;24.546;2022-07-05T02:35:10;98221.59;;;19.26;87.99
20023;BME280;10172;42.054;24.546;2022-07-05T02:37:36;98224.47;;;19.92;83.81
20023;BME280;10172;42.054;24.546;2022-07-05T02:40:03;98230.00;;;18.97;91.64
20023;BME280;10172;42.054;24.546;2022-07-05T02:42:28;98230.03;;;18.27;96.30
20023;BME280;10172;42.054;24.546;2022-07-05T02:44:54;98227.97;;;18.56;94.69
20023;BME280;10172;42.054;24.546;2022-07-05T02:47:19;98224.78;;;18.78;92.86
20023;BME280;10172;42.054;24.546;2022-07-05T02:49:45;98213.81;;;18.54;94.79
20023;BME280;10172;42.054;24.546;2022-07-05T02:52:10;98226.78;;;18.76;93.67
20023;BME280;10172;42.054;24.546;2022-07-05T02:54:35;98226.31;;;18.28;96.48
20023;BME280;10172;42.054;24.546;2022-07-05T02:57:01;98216.47;;;18.72;94.65
20023;BME280;10172;42.054;24.546;2022-07-05T02:59:27;98226.50;;;17.54;100.00
20023;BME280;10172;42.054;24.546;2022-07-05T03:01:52;98216.31;;;17.39;100.00
20023;BME280;10172;42.054;24.546;2022-07-05T03:04:18;98217.72;;;17.79;100.00
20023;BME280;10172;42.054;24.546;2022-07-05T03:06:43;98210.94;;;18.38;98.54
20023;BME280;10172;42.054;24.546;2022-07-05T03:09:09;98202.47;;;18.68;95.46
20023;BME280;10172;42.054;24.546;2022-07-05T03:11:34;98202.69;;;18.39;97.19
20023;BME280;10172;42.054;24.546;2022-07-05T03:14:00;98194.00;;;18.28;98.80
20023;BME280;10172;42.054;24.546;2022-07-05T03:16:25;98194.56;;;18.92;93.95
20023;BME280;10172;42.054;24.546;2022-07-05T03:18:51;98193.44;;;18.77;94.68
20023;BME280;10172;42.054;24.546;2022-07-05T03:21:17;98196.56;;;18.90;92.90
20023;BME280;10172;42.054;24.546;2022-07-05T03:23:42;98210.53;;;19.11;92.35
20023;BME280;10172;42.054;24.546;2022-07-05T03:26:08;98205.22;;;18.76;93.98
20023;BME280;10172;42.054;24.546;2022-07-05T03:28:33;98205.28;;;18.84;93.90
20023;BME280;10172;42.054;24.546;2022-07-05T03:30:59;98198.53;;;18.45;96.52
20023;BME280;10172;42.054;24.546;2022-07-05T03:33:25;98193.63;;;18.58;96.46
20023;BME280;10172;42.054;24.546;2022-07-05T03:35:50;98198.78;;;18.34;99.81
20023;BME280;10172;42.054;24.546;2022-07-05T03:38:15;98202.94;;;18.81;96.62
20023;BME280;10172;42.054;24.546;2022-07-05T03:40:41;98204.56;;;18.57;97.73
20023;BME280;10172;42.054;24.546;2022-07-05T03:43:06;98211.09;;;19.41;93.11
20023;BME280;10172;42.054;24.546;2022-07-05T03:45:32;98200.34;;;18.54;98.38
20023;BME280;10172;42.054;24.546;2022-07-05T03:48:01;98201.47;;;18.87;97.58
20023;BME280;10172;42.054;24.546;2022-07-05T03:50:27;98196.28;;;19.19;95.45
20023;BME280;10172;42.054;24.546;2022-07-05T03:52:53;98208.72;;;19.80;93.77
20023;BME280;10172;42.054;24.546;2022-07-05T03:55:19;98201.84;;;19.93;92.10
20023;BME280;10172;42.054;24.546;2022-07-05T03:57:44;98207.25;;;19.93;90.53
20023;BME280;10172;42.054;24.546;2022-07-05T04:00:11;98206.34;;;19.77;91.52
20023;BME280;10172;42.054;24.546;2022-07-05T04:02:36;98209.84;;;19.69;92.96
20023;BME280;10172;42.054;24.546;2022-07-05T04:05:02;98200.88;;;20.02;90.39
20023;BME280;10172;42.054;24.546;2022-07-05T04:07:27;98195.88;;;20.32;88.93
20023;BME280;10172;42.054;24.546;2022-07-05T04:09:53;98191.16;;;20.58;87.75
20023;BME280;10172;42.054;24.546;2022-07-05T04:12:18;98183.28;;;19.90;90.57
20023;BME280;10172;42.054;24.546;2022-07-05T04:14:44;98187.03;;;19.97;91.57
20023;BME280;10172;42.054;24.546;2022-07-05T04:17:09;98174.94;;;20.34;90.35
20023;BME280;10172;42.054;24.546;2022-07-05T04:19:35;98192.94;;;20.09;92.60
20023;BME280;10172;42.054;24.546;2022-07-05T04:22:00;98181.22;;;20.58;89.54
20023;BME280;10172;42.054;24.546;2022-07-05T04:24:26;98175.78;;;20.82;87.10
20023;BME280;10172;42.054;24.546;2022-07-05T04:26:51;98176.63;;;20.91;86.63
20023;BME280;10172;42.054;24.546;2022-07-05T04:29:16;98168.50;;;20.99;86.75
20023;BME280;10172;42.054;24.546;2022-07-05T04:31:42;98166.41;;;21.33;83.08
20023;BME280;10172;42.054;24.546;2022-07-05T04:34:08;98180.44;;;21.84;82.31
20023;BME280;10172;42.054;24.546;2022-07-05T04:36:33;98171.88;;;21.09;88.21
20023;BME280;10172;42.054;24.546;2022-07-05T04:38:59;98174.59;;;20.93;89.56
20023;BME280;10172;42.054;24.546;2022-07-05T04:41:24;98167.53;;;21.08;87.97
20023;BME280;10172;42.054;24.546;2022-07-05T04:43:49;98164.94;;;21.70;83.67
20023;BME280;10172;42.054;24.546;2022-07-05T04:46:15;98172.69;;;22.34;80.23
20023;BME280;10172;42.054;24.546;2022-07-05T04:48:40;98160.03;;;22.49;79.19
20023;BME280;10172;42.054;24.546;2022-07-05T04:51:06;98163.44;;;22.51;79.89
20023;BME280;10172;42.054;24.546;2022-07-05T04:53:31;98162.63;;;22.88;77.91
20023;BME280;10172;42.054;24.546;2022-07-05T04:55:57;98178.84;;;22.74;79.67
20023;BME280;10172;42.054;24.546;2022-07-05T04:58:22;98177.75;;;22.83;79.34
20023;BME280;10172;42.054;24.546;2022-07-05T05:00:48;98186.22;;;23.17;77.74
20023;BME280;10172;42.054;24.546;2022-07-05T05:03:13;98182.13;;;23.21;76.36
20023;BME280;10172;42.054;24.546;2022-07-05T05:05:39;98183.22;;;22.97;75.93
20023;BME280;10172;42.054;24.546;2022-07-05T05:08:04;98189.41;;;23.06;76.84
20023;BME280;10172;42.054;24.546;2022-07-05T05:10:30;98194.84;;;23.06;75.65
20023;BME280;10172;42.054;24.546;2022-07-05T05:12:55;98190.41;;;23.57;73.08
20023;BME280;10172;42.054;24.546;2022-07-05T05:15:21;98199.53;;;23.27;71.89
20023;BME280;10172;42.054;24.546;2022-07-05T05:17:46;98214.84;;;23.19;74.10
20023;BME280;10172;42.054;24.546;2022-07-05T05:20:17;98208.69;;;23.26;72.74
20023;BME280;10172;42.054;24.546;2022-07-05T05:22:44;98208.81;;;23.32;72.23
20023;BME280;10172;42.054;24.546;2022-07-05T05:25:11;98204.19;;;23.18;72.42
20023;BME280;10172;42.054;24.546;2022-07-05T05:27:42;98221.59;;;23.61;71.69
20023;BME280;10172;42.054;24.546;2022-07-05T05:30:08;98209.91;;;24.25;69.12
20023;BME280;10172;42.054;24.546;2022-07-05T05:32:33;98216.78;;;24.43;69.18
20023;BME280;10172;42.054;24.546;2022-07-05T05:34:59;98208.84;;;24.62;68.08
20023;BME280;10172;42.054;24.546;2022-07-05T05:37:24;98208.22;;;25.03;66.61
20023;BME280;10172;42.054;24.546;2022-07-05T05:39:50;98208.94;;;25.18;65.28
20023;BME280;10172;42.054;24.546;2022-07-05T05:42:15;98203.81;;;24.80;65.71
20023;BME280;10172;42.054;24.546;2022-07-05T05:44:40;98213.28;;;25.12;64.81
20023;BME280;10172;42.054;24.546;2022-07-05T05:47:06;98219.66;;;25.19;64.85
20023;BME280;10172;42.054;24.546;2022-07-05T05:49:31;98218.72;;;25.06;66.73
20023;BME280;10172;42.054;24.546;2022-07-05T05:51:57;98219.47;;;25.48;65.89
20023;BME280;10172;42.054;24.546;2022-07-05T05:54:22;98226.72;;;25.69;64.07
20023;BME280;10172;42.054;24.546;2022-07-05T05:56:47;98231.03;;;25.91;62.79
20023;BME280;10172;42.054;24.546;2022-07-05T05:59:13;98221.56;;;25.87;63.23
20023;BME280;10172;42.054;24.546;2022-07-05T06:01:38;98231.13;;;26.11;61.90
20023;BME280;10172;42.054;24.546;2022-07-05T06:04:04;98220.28;;;26.18;62.98
20023;BME280;10172;42.054;24.546;2022-07-05T06:06:29;98215.06;;;26.23;62.05
20023;BME280;10172;42.054;24.546;2022-07-05T06:08:55;98227.50;;;25.97;62.32
20023;BME280;10172;42.054;24.546;2022-07-05T06:11:20;98218.03;;;25.87;62.65
20023;BME280;10172;42.054;24.546;2022-07-05T06:13:46;98217.34;;;25.78;63.38
20023;BME280;10172;42.054;24.546;2022-07-05T06:16:12;98210.03;;;25.85;63.54
20023;BME280;10172;42.054;24.546;2022-07-05T06:18:37;98208.31;;;25.78;62.81
20023;BME280;10172;42.054;24.546;2022-07-05T06:21:02;98203.88;;;26.11;61.82
20023;BME280;10172;42.054;24.546;2022-07-05T06:23:28;98196.09;;;26.62;60.82
20023;BME280;10172;42.054;24.546;2022-07-05T06:25:54;98201.38;;;26.96;58.62
20023;BME280;10172;42.054;24.546;2022-07-05T06:28:19;98208.94;;;27.33;58.57
20023;BME280;10172;42.054;24.546;2022-07-05T06:30:44;98194.44;;;27.53;56.93
20023;BME280;10172;42.054;24.546;2022-07-05T06:33:10;98199.09;;;27.46;56.18
20023;BME280;10172;42.054;24.546;2022-07-05T06:35:35;98199.50;;;27.49;55.34
20023;BME280;10172;42.054;24.546;2022-07-05T06:38:03;98198.97;;;27.85;55.25
20023;BME280;10172;42.054;24.546;2022-07-05T06:40:31;98198.25;;;27.52;55.81
20023;BME280;10172;42.054;24.546;2022-07-05T06:42:59;98200.25;;;27.89;54.77
20023;BME280;10172;42.054;24.546;2022-07-05T06:45:25;98193.03;;;28.14;53.42
20023;BME280;10172;42.054;24.546;2022-07-05T06:48:08;98190.41;;;28.32;52.49
20023;BME280;10172;42.054;24.546;2022-07-05T06:50:39;98195.38;;;28.48;52.25
20023;BME280;10172;42.054;24.546;2022-07-05T06:53:05;98186.44;;;28.66;51.38
20023;BME280;10172;42.054;24.546;2022-07-05T06:55:31;98186.06;;;28.63;52.01
20023;BME280;10172;42.054;24.546;2022-07-05T06:58:04;98185.59;;;28.97;52.06
20023;BME280;10172;42.054;24.546;2022-07-05T07:00:30;98174.19;;;29.00;50.57
20023;BME280;10172;42.054;24.546;2022-07-05T07:02:57;98174.34;;;28.80;49.95
20023;BME280;10172;42.054;24.546;2022-07-05T07:05:23;98174.50;;;28.85;50.93
20023;BME280;10172;42.054;24.546;2022-07-05T07:07:48;98169.19;;;29.15;50.18
20023;BME280;10172;42.054;24.546;2022-07-05T07:10:32;98171.44;;;29.49;49.33
20023;BME280;10172;42.054;24.546;2022-07-05T07:12:59;98181.81;;;29.66;47.94
20023;BME280;10172;42.054;24.546;2022-07-05T07:15:25;98174.06;;;29.81;48.20
20023;BME280;10172;42.054;24.546;2022-07-05T07:17:50;98178.28;;;29.77;47.55
20023;BME280;10172;42.054;24.546;2022-07-05T07:20:16;98171.03;;;29.89;48.06
20023;BME280;10172;42.054;24.546;2022-07-05T07:22:41;98173.56;;;28.35;49.85
20023;BME280;10172;42.054;24.546;2022-07-05T07:25:07;98174.34;;;29.05;49.18
20023;BME280;10172;42.054;24.546;2022-07-05T07:27:44;98177.69;;;29.75;48.45
20023;BME280;10172;42.054;24.546;2022-07-05T07:30:14;98175.50;;;29.65;48.20
20023;BME280;10172;42.054;24.546;2022-07-05T07:32:40;98183.44;;;29.30;49.31
20023;BME280;10172;42.054;24.546;2022-07-05T07:35:06;98173.50;;;29.72;48.19
20023;BME280;10172;42.054;24.546;2022-07-05T07:37:32;98179.41;;;29.94;48.17
20023;BME280;10172;42.054;24.546;2022-07-05T07:39:58;98179.22;;;30.43;46.35
20023;BME280;10172;42.054;24.546;2022-07-05T07:42:24;98171.50;;;30.63;46.33
20023;BME280;10172;42.054;24.546;2022-07-05T07:44:49;98186.47;;;30.38;45.50
20023;BME280;10172;42.054;24.546;2022-07-05T07:47:15;98176.53;;;29.64;47.86
20023;BME280;10172;42.054;24.546;2022-07-05T07:49:40;98183.88;;;29.70;47.91
20023;BME280;10172;42.054;24.546;2022-07-05T07:52:06;98176.34;;;30.02;46.83
20023;BME280;10172;42.054;24.546;2022-07-05T07:54:32;98173.59;;;30.79;45.27
20023;BME280;10172;42.054;24.546;2022-07-05T07:56:57;98172.41;;;30.75;43.61
20023;BME280;10172;42.054;24.546;2022-07-05T07:59:25;98178.34;;;30.72;44.27
20023;BME280;10172;42.054;24.546;2022-07-05T08:01:50;98176.09;;;31.11;43.64
20023;BME280;10172;42.054;24.546;2022-07-05T08:04:15;98176.09;;;31.34;42.44
20023;BME280;10172;42.054;24.546;2022-07-05T08:06:42;98176.81;;;31.41;41.84
20023;BME280;10172;42.054;24.546;2022-07-05T08:09:08;98175.13;;;31.86;40.66
20023;BME280;10172;42.054;24.546;2022-07-05T08:11:33;98180.00;;;31.96;42.19
20023;BME280;10172;42.054;24.546;2022-07-05T08:13:58;98176.09;;;31.46;41.95
20023;BME280;10172;42.054;24.546;2022-07-05T08:16:24;98175.94;;;31.98;42.21
20023;BME280;10172;42.054;24.546;2022-07-05T08:18:49;98183.13;;;32.00;41.18
20023;BME280;10172;42.054;24.546;2022-07-05T08:21:33;98181.03;;;30.31;44.20
20023;BME280;10172;42.054;24.546;2022-07-05T08:24:10;98172.97;;;30.36;44.22
20023;BME280;10172;42.054;24.546;2022-07-05T08:26:38;98177.72;;;30.59;43.71
20023;BME280;10172;42.054;24.546;2022-07-05T08:29:06;98167.69;;;30.94;42.22
20023;BME280;10172;42.054;24.546;2022-07-05T08:31:38;98178.03;;;31.57;41.72
20023;BME280;10172;42.054;24.546;2022-07-05T08:34:04;98175.13;;;31.98;40.91
20023;BME280;10172;42.054;24.546;2022-07-05T08:36:30;98175.03;;;32.33;40.54
20023;BME280;10172;42.054;24.546;2022-07-05T08:38:55;98165.28;;;32.53;39.11
20023;BME280;10172;42.054;24.546;2022-07-05T08:41:22;98162.56;;;32.70;38.53
20023;BME280;10172;42.054;24.546;2022-07-05T08:43:49;98162.81;;;33.14;39.51
20023;BME280;10172;42.054;24.546;2022-07-05T08:46:15;98141.47;;;32.92;38.99
20023;BME280;10172;42.054;24.546;2022-07-05T08:48:43;98154.72;;;32.50;40.11
20023;BME280;10172;42.054;24.546;2022-07-05T08:51:13;98153.84;;;32.90;38.61
20023;BME280;10172;42.054;24.546;2022-07-05T08:53:40;98151.16;;;32.95;38.52
20023;BME280;10172;42.054;24.546;2022-07-05T08:56:11;98137.94;;;32.35;39.57
20023;BME280;10172;42.054;24.546;2022-07-05T08:58:38;98123.59;;;32.78;37.56
20023;BME280;10172;42.054;24.546;2022-07-05T09:01:05;98141.47;;;32.76;37.68
20023;BME280;10172;42.054;24.546;2022-07-05T09:03:42;98141.31;;;33.16;37.39
20023;BME280;10172;42.054;24.546;2022-07-05T09:06:12;98113.88;;;33.59;35.76
20023;BME280;10172;42.054;24.546;2022-07-05T09:08:40;98145.31;;;33.41;36.74
20023;BME280;10172;42.054;24.546;2022-07-05T09:11:13;98136.97;;;33.03;37.84
20023;BME280;10172;42.054;24.546;2022-07-05T09:13:47;98141.31;;;33.16;38.35
20023;BME280;10172;42.054;24.546;2022-07-05T09:16:13;98135.16;;;33.08;39.15
20023;BME280;10172;42.054;24.546;2022-07-05T09:21:27;98145.22;;;33.91;37.97
20023;BME280;10172;42.054;24.546;2022-07-05T09:29:10;98132.06;;;33.77;37.51
20023;BME280;10172;42.054;24.546;2022-07-05T09:31:42;98135.47;;;33.84;37.30
20023;BME280;10172;42.054;24.546;2022-07-05T09:34:09;98136.16;;;33.96;36.12
20023;BME280;10172;42.054;24.546;2022-07-05T09:42:20;98120.91;;;33.88;35.10
20023;BME280;10172;42.054;24.546;2022-07-05T09:44:50;98122.97;;;33.76;34.79
20023;BME280;10172;42.054;24.546;2022-07-05T09:47:18;98079.59;;;33.33;35.33
20023;BME280;10172;42.054;24.546;2022-07-05T09:49:55;98107.59;;;33.85;34.66
20023;BME280;10172;42.054;24.546;2022-07-05T09:52:30;98111.78;;;33.88;34.26
20023;BME280;10172;42.054;24.546;2022-07-05T09:55:16;98109.22;;;34.03;35.04
20023;BME280;10172;42.054;24.546;2022-07-05T09:57:44;98107.56;;;34.23;33.63
20023;BME280;10172;42.054;24.546;2022-07-05T10:00:16;98077.28;;;34.07;32.59
20023;BME280;10172;42.054;24.546;2022-07-05T10:02:49;98086.59;;;34.22;31.92
20023;BME280;10172;42.054;24.546;2022-07-05T10:05:25;98083.66;;;34.61;31.62
20023;BME280;10172;42.054;24.546;2022-07-05T10:07:53;98074.53;;;34.92;31.91
20023;BME280;10172;42.054;24.546;2022-07-05T10:10:20;98086.53;;;34.71;31.53
20023;BME280;10172;42.054;24.546;2022-07-05T10:12:47;98071.25;;;34.37;30.44
20023;BME280;10172;42.054;24.546;2022-07-05T10:15:16;98076.97;;;34.83;30.50
20023;BME280;10172;42.054;24.546;2022-07-05T10:17:54;98062.94;;;34.90;31.22
20023;BME280;10172;42.054;24.546;2022-07-05T10:23:15;98070.19;;;34.69;31.51
20023;BME280;10172;42.054;24.546;2022-07-05T10:25:43;98059.72;;;34.45;31.93
20023;BME280;10172;42.054;24.546;2022-07-05T10:28:09;98061.69;;;35.08;31.78
20023;BME280;10172;42.054;24.546;2022-07-05T10:30:35;98051.28;;;34.88;31.97
20023;BME280;10172;42.054;24.546;2022-07-05T10:33:02;98066.66;;;34.74;33.47
20023;BME280;10172;42.054;24.546;2022-07-05T10:35:28;98046.03;;;34.55;33.15
20023;BME280;10172;42.054;24.546;2022-07-05T10:37:54;98059.00;;;34.86;32.28
20023;BME280;10172;42.054;24.546;2022-07-05T10:40:21;98017.19;;;34.41;32.79
20023;BME280;10172;42.054;24.546;2022-07-05T10:42:50;98056.63;;;35.00;31.95
20023;BME280;10172;42.054;24.546;2022-07-05T10:50:52;98042.16;;;35.19;31.42
20023;BME280;10172;42.054;24.546;2022-07-05T11:00:41;98041.78;;;35.06;32.04
20023;BME280;10172;42.054;24.546;2022-07-05T11:03:37;98034.16;;;35.75;31.31
20023;BME280;10172;42.054;24.546;2022-07-05T11:06:04;98031.66;;;35.73;30.92
20023;BME280;10172;42.054;24.546;2022-07-05T11:08:31;98023.28;;;36.30;30.29
20023;BME280;10172;42.054;24.546;2022-07-05T11:11:15;98026.53;;;36.02;30.62
20023;BME280;10172;42.054;24.546;2022-07-05T11:13:41;98025.81;;;35.65;31.49
20023;BME280;10172;42.054;24.546;2022-07-05T11:16:33;98020.41;;;36.00;31.71
20023;BME280;10172;42.054;24.546;2022-07-05T11:19:17;98010.59;;;35.57;31.59
20023;BME280;10172;42.054;24.546;2022-07-05T11:24:28;97993.09;;;35.52;31.98
20023;BME280;10172;42.054;24.546;2022-07-05T11:26:59;98012.09;;;35.95;31.41
20023;BME280;10172;42.054;24.546;2022-07-05T11:32:23;97986.13;;;36.26;31.81
20023;BME280;10172;42.054;24.546;2022-07-05T11:35:16;97980.09;;;36.60;31.31
20023;BME280;10172;42.054;24.546;2022-07-05T11:40:29;97992.69;;;35.85;32.09
20023;BME280;10172;42.054;24.546;2022-07-05T11:42:55;97988.91;;;36.21;31.62
20023;BME280;10172;42.054;24.546;2022-07-05T11:45:20;97962.06;;;36.27;30.95
20023;BME280;10172;42.054;24.546;2022-07-05T11:47:47;97983.91;;;36.18;32.51
20023;BME280;10172;42.054;24.546;2022-07-05T11:50:13;97975.63;;;36.38;31.55
20023;BME280;10172;42.054;24.546;2022-07-05T11:52:39;97980.66;;;36.77;31.13
20023;BME280;10172;42.054;24.546;2022-07-05T11:55:06;97971.47;;;36.11;31.83
20023;BME280;10172;42.054;24.546;2022-07-05T11:57:32;97964.53;;;36.08;31.67
20023;BME280;10172;42.054;24.546;2022-07-05T11:59:58;97971.16;;;36.02;31.70
20023;BME280;10172;42.054;24.546;2022-07-05T12:02:24;97959.00;;;36.08;32.32
20023;BME280;10172;42.054;24.546;2022-07-05T12:04:51;97966.22;;;36.65;32.09
20023;BME280;10172;42.054;24.546;2022-07-05T12:07:30;97952.91;;;36.36;32.37
20023;BME280;10172;42.054;24.546;2022-07-05T12:09:57;97959.53;;;36.86;31.78
20023;BME280;10172;42.054;24.546;2022-07-05T12:12:42;97964.81;;;36.22;31.58
20023;BME280;10172;42.054;24.546;2022-07-05T12:15:18;97972.84;;;36.99;31.67
20023;BME280;10172;42.054;24.546;2022-07-05T12:17:49;97963.97;;;36.06;31.84
20023;BME280;10172;42.054;24.546;2022-07-05T12:20:21;97952.28;;;35.84;31.77
20023;BME280;10172;42.054;24.546;2022-07-05T12:22:46;97952.38;;;36.24;31.90
20023;BME280;10172;42.054;24.546;2022-07-05T12:25:20;97959.00;;;36.23;32.38
20023;BME280;10172;42.054;24.546;2022-07-05T12:27:47;97909.31;;;35.56;33.23
20023;BME280;10172;42.054;24.546;2022-07-05T12:30:14;97952.66;;;36.28;32.75
20023;BME280;10172;42.054;24.546;2022-07-05T12:32:56;97951.78;;;36.07;33.29
20023;BME280;10172;42.054;24.546;2022-07-05T12:35:40;97934.91;;;36.44;32.55
20023;BME280;10172;42.054;24.546;2022-07-05T12:38:11;97944.34;;;36.38;32.15
20023;BME280;10172;42.054;24.546;2022-07-05T12:40:41;97945.72;;;36.25;32.38
20023;BME280;10172;42.054;24.546;2022-07-05T12:43:16;97934.63;;;36.20;33.06
20023;BME280;10172;42.054;24.546;2022-07-05T12:45:59;97939.63;;;36.33;33.39
20023;BME280;10172;42.054;24.546;2022-07-05T12:48:37;97941.03;;;36.71;33.19
20023;BME280;10172;42.054;24.546;2022-07-05T12:51:06;97929.06;;;36.86;32.17
20023;BME280;10172;42.054;24.546;2022-07-05T12:53:32;97938.25;;;36.41;33.08
20023;BME280;10172;42.054;24.546;2022-07-05T12:56:16;97937.13;;;36.27;32.59
20023;BME280;10172;42.054;24.546;2022-07-05T12:59:02;97931.00;;;36.85;33.08
20023;BME280;10172;42.054;24.546;2022-07-05T13:01:33;97911.41;;;36.51;32.50
20023;BME280;10172;42.054;24.546;2022-07-05T13:09:32;97911.38;;;36.26;33.50
20023;BME280;10172;42.054;24.546;2022-07-05T13:14:34;97900.25;;;35.91;33.73
20023;BME280;10172;42.054;24.546;2022-07-05T13:17:00;97906.94;;;36.20;33.60
20023;BME280;10172;42.054;24.546;2022-07-05T13:19:25;97905.84;;;36.16;33.27
20023;BME280;10172;42.054;24.546;2022-07-05T13:21:51;97894.78;;;36.11;33.90
20023;BME280;10172;42.054;24.546;2022-07-05T13:24:16;97901.97;;;36.17;33.36
20023;BME280;10172;42.054;24.546;2022-07-05T13:26:42;97903.09;;;36.06;34.01
20023;BME280;10172;42.054;24.546;2022-07-05T13:29:07;97893.94;;;36.11;34.36
20023;BME280;10172;42.054;24.546;2022-07-05T13:31:33;97892.22;;;35.79;34.54
20023;BME280;10172;42.054;24.546;2022-07-05T13:33:59;97886.47;;;36.16;33.90
20023;BME280;10172;42.054;24.546;2022-07-05T13:36:25;97894.78;;;36.11;33.97
20023;BME280;10172;42.054;24.546;2022-07-05T13:38:54;97887.56;;;36.15;33.68